createdAt,value
2018-08-13T00:05:58.525Z,98864.50
2018-08-13T00:12:04.731Z,98855.50
2018-08-13T00:18:11.087Z,98853.44
2018-08-13T00:24:15.868Z,98854.52
2018-08-13T00:30:20.872Z,98848.83
2018-08-13T00:36:25.832Z,98847.22
2018-08-13T00:42:31.869Z,98840.75
2018-08-13T00:48:36.974Z,98831.06
2018-08-13T00:54:41.750Z,98820.98
2018-08-13T01:00:46.518Z,98813.41
2018-08-13T01:06:51.352Z,98811.78
2018-08-13T01:12:56.075Z,98803.95
2018-08-13T01:19:02.809Z,98814.14
2018-08-13T01:25:10.511Z,98811.02
2018-08-13T01:31:15.426Z,98801.05
2018-08-13T01:37:20.094Z,98781.77
2018-08-13T01:43:24.723Z,98778.30
2018-08-13T01:49:30.807Z,98772.52
2018-08-13T01:55:36.576Z,98761.12
2018-08-13T02:01:41.755Z,98755.45
2018-08-13T02:07:47.130Z,98751.58
2018-08-13T02:13:52.223Z,98748.72
2018-08-13T02:19:57.243Z,98755.12
2018-08-13T02:26:03.414Z,98754.55
2018-08-13T02:32:08.525Z,98752.19
2018-08-13T02:38:13.776Z,98744.94
2018-08-13T02:44:18.672Z,98739.27
2018-08-13T02:50:23.377Z,98739.16
2018-08-13T02:56:28.510Z,98735.65
2018-08-13T03:02:33.934Z,98731.31
2018-08-13T03:08:38.883Z,98729.44
2018-08-13T03:14:43.889Z,98720.24
2018-08-13T03:20:48.804Z,98734.66
2018-08-13T03:26:53.611Z,98728.72
2018-08-13T03:32:58.834Z,98739.62
2018-08-13T03:39:05.045Z,98743.14
2018-08-13T03:45:12.508Z,98745.28
2018-08-13T03:51:17.537Z,98742.28
2018-08-13T03:57:22.522Z,98739.48
2018-08-13T04:03:27.512Z,98737.38
2018-08-13T04:09:32.445Z,98726.13
2018-08-13T04:15:37.697Z,98713.55
2018-08-13T04:21:42.435Z,98713.13
2018-08-13T04:27:47.190Z,98705.70
2018-08-13T04:33:51.999Z,98690.77
2018-08-13T04:39:56.800Z,98692.83
2018-08-13T04:46:03.295Z,98686.98
2018-08-13T04:52:08.272Z,98677.30
2018-08-13T04:58:13.016Z,98670.79
2018-08-13T05:04:17.910Z,98676.98
2018-08-13T05:10:22.802Z,98671.08
2018-08-13T05:16:27.621Z,98676.30
2018-08-13T05:22:34.206Z,98678.23
2018-08-13T05:28:39.211Z,98661.33
2018-08-13T05:34:44.104Z,98664.20
2018-08-13T05:40:48.897Z,98664.77
2018-08-13T05:46:53.946Z,98653.50
2018-08-13T05:52:59.248Z,98639.92
2018-08-13T05:59:05.302Z,98626.77
2018-08-13T06:05:11.215Z,98608.43
2018-08-13T06:11:16.244Z,98616.63
2018-08-13T06:17:21.130Z,98612.34
2018-08-13T06:23:25.971Z,98606.91
2018-08-13T06:29:31.959Z,98591.97
2018-08-13T06:35:37.107Z,98603.41
2018-08-13T06:41:41.899Z,98606.28
2018-08-13T06:47:47.201Z,98611.02
2018-08-13T06:53:52.108Z,98606.02
2018-08-13T06:59:56.924Z,98611.08
2018-08-13T07:06:03.898Z,98592.75
2018-08-13T07:12:08.942Z,98601.55
2018-08-13T07:18:14.034Z,98608.92
2018-08-13T07:24:19.079Z,98600.09
2018-08-13T07:30:24.244Z,98588.91
2018-08-13T07:36:29.208Z,98589.49
2018-08-13T07:42:35.077Z,98594.78
2018-08-13T07:48:40.002Z,98597.16
2018-08-13T07:54:44.748Z,98596.44
2018-08-13T08:00:49.503Z,98603.49
2018-08-13T08:06:54.712Z,98616.12
2018-08-13T08:13:00.709Z,98641.03
2018-08-13T08:19:06.505Z,98672.04
2018-08-13T08:25:15.511Z,98684.80
2018-08-13T08:31:20.627Z,98714.56
2018-08-13T08:37:25.413Z,98727.95
2018-08-13T08:43:31.291Z,98716.05
2018-08-13T08:49:36.298Z,98740.05
2018-08-13T08:55:41.399Z,98752.02
2018-08-13T09:01:46.329Z,98765.92
2018-08-13T09:07:51.116Z,98767.23
2018-08-13T09:13:56.248Z,98760.69
2018-08-13T09:20:17.841Z,98770.55
2018-08-13T09:26:39.470Z,98766.58
2018-08-13T09:33:01.457Z,98769.65
2018-08-13T09:39:09.784Z,98766.63
2018-08-13T09:45:15.095Z,98765.48
2018-08-13T09:51:20.282Z,98738.36
2018-08-13T09:57:25.333Z,98719.25
2018-08-13T10:03:30.927Z,98725.20
2018-08-13T10:09:36.450Z,98712.47
2018-08-13T10:15:41.510Z,98731.75
2018-08-13T10:21:46.348Z,98712.37
2018-08-13T10:27:51.089Z,98718.89
2018-08-13T10:33:56.933Z,98697.10
2018-08-13T10:40:03.721Z,98709.62
2018-08-13T10:46:09.445Z,98720.53
2018-08-13T10:52:14.872Z,98715.39
2018-08-13T10:58:19.970Z,98711.73
2018-08-13T11:04:25.050Z,98709.58
2018-08-13T11:10:31.869Z,98713.72
2018-08-13T11:16:37.722Z,98702.28
2018-08-13T11:22:43.597Z,98712.42
2018-08-13T11:28:48.840Z,98700.63
2018-08-13T11:34:53.833Z,98700.91
2018-08-13T11:40:58.435Z,98700.25
2018-08-13T11:47:05.260Z,98690.09
2018-08-13T11:53:10.372Z,98677.66
2018-08-13T11:59:15.005Z,98668.20
2018-08-13T12:05:19.787Z,98669.23
2018-08-13T12:11:24.837Z,98689.14
2018-08-13T12:17:30.265Z,98695.56
2018-08-13T12:23:35.511Z,98678.02
2018-08-13T12:29:40.763Z,98683.89
2018-08-13T12:35:45.495Z,98682.20
2018-08-13T12:41:50.285Z,98678.06
2018-08-13T12:47:55.176Z,98683.70
2018-08-13T12:54:01.641Z,98679.26
2018-08-13T13:00:10.795Z,98654.33
2018-08-13T13:06:15.543Z,98665.94
2018-08-13T13:12:20.392Z,98657.72
2018-08-13T13:18:26.014Z,98647.75
2018-08-13T13:24:32.230Z,98628.68
2018-08-13T13:30:37.178Z,98617.02
2018-08-13T13:36:42.161Z,98614.52
2018-08-13T13:42:46.934Z,98596.28
2018-08-13T13:48:51.829Z,98588.39
2018-08-13T13:54:56.623Z,98582.79
2018-08-13T14:01:02.362Z,98573.81
2018-08-13T14:07:08.135Z,98577.13
2018-08-13T14:13:12.786Z,98563.58
2018-08-13T14:19:17.611Z,98564.75
2018-08-13T14:25:22.382Z,98565.17
2018-08-13T14:31:27.267Z,98571.58
2018-08-13T14:37:32.028Z,98561.51
2018-08-13T14:43:36.974Z,98570.85
2018-08-13T14:49:41.768Z,98568.65
2018-08-13T14:55:46.788Z,98559.26
2018-08-13T15:01:51.590Z,98568.75
2018-08-13T15:07:56.458Z,98567.67
2018-08-13T15:14:03.609Z,98560.76
2018-08-13T15:20:12.246Z,98554.08
2018-08-13T15:26:17.156Z,98553.56
2018-08-13T15:32:21.943Z,98541.04
2018-08-13T15:38:26.755Z,98541.61
2018-08-13T15:44:32.435Z,98544.17
2018-08-13T15:50:37.484Z,98536.76
2018-08-13T15:56:42.959Z,98527.79
2018-08-13T16:02:48.259Z,98521.27
2018-08-13T16:08:53.046Z,98509.84
2018-08-13T16:14:58.349Z,98500.20
2018-08-13T16:21:03.324Z,98504.98
2018-08-13T16:27:08.069Z,98507.31
2018-08-13T16:33:13.212Z,98512.38
2018-08-13T16:39:18.104Z,98502.95
2018-08-13T16:45:24.251Z,98496.22
2018-08-13T16:51:29.729Z,98484.45
2018-08-13T16:57:35.051Z,98492.78
2018-08-13T17:03:39.915Z,98490.25
2018-08-13T17:09:44.703Z,98496.06
2018-08-13T17:15:50.255Z,98502.47
2018-08-13T17:21:55.001Z,98515.67
2018-08-13T17:28:00.106Z,98525.34
2018-08-13T17:34:06.271Z,98530.06
2018-08-13T17:40:22.177Z,98528.45
2018-08-13T17:46:27.774Z,98543.16
2018-08-13T17:52:34.504Z,98543.75
2018-08-13T17:58:39.253Z,98534.08
2018-08-13T18:04:44.312Z,98538.08
2018-08-13T18:10:49.170Z,98561.07
2018-08-13T18:16:54.062Z,98565.02
2018-08-13T18:23:00.718Z,98566.78
2018-08-13T18:29:06.073Z,98549.26
2018-08-13T18:35:11.595Z,98574.95
2018-08-13T18:41:16.447Z,98588.78
2018-08-13T18:47:21.702Z,98585.56
2018-08-13T18:53:26.501Z,98606.09
2018-08-13T18:59:33.077Z,98604.30
2018-08-13T19:05:38.305Z,98606.58
2018-08-13T19:11:43.344Z,98622.14
2018-08-13T19:17:48.381Z,98631.09
2018-08-13T19:23:53.526Z,98638.17
2018-08-13T19:29:59.148Z,98626.93
2018-08-13T19:36:05.814Z,98638.80
2018-08-13T19:42:10.701Z,98639.66
2018-08-13T19:48:15.964Z,98639.38
2018-08-13T19:54:20.855Z,98639.63
2018-08-13T20:00:27.533Z,98633.06
2018-08-13T20:06:34.008Z,98650.69
2018-08-13T20:12:39.245Z,98661.97
2018-08-13T20:18:43.975Z,98662.59
2018-08-13T20:24:48.757Z,98673.36
2018-08-13T20:30:53.743Z,98668.88
2018-08-13T20:36:59.304Z,98681.44
2018-08-13T20:43:05.060Z,98686.66
2018-08-13T20:49:11.106Z,98699.70
2018-08-13T20:55:28.445Z,98700.30
2018-08-13T21:01:33.662Z,98704.02
2018-08-13T21:07:38.898Z,98712.69
2018-08-13T21:13:43.636Z,98713.08
2018-08-13T21:19:48.420Z,98725.55
2018-08-13T21:25:53.468Z,98718.38
2018-08-13T21:31:59.121Z,98723.88
2018-08-13T21:38:04.927Z,98719.59
2018-08-13T21:44:09.635Z,98727.67
2018-08-13T21:50:18.743Z,98728.48
2018-08-13T21:56:23.641Z,98726.89
2018-08-13T22:02:28.423Z,98729.84
2018-08-13T22:08:33.419Z,98738.79
2018-08-13T22:14:38.300Z,98736.86
2018-08-13T22:20:43.095Z,98741.13
2018-08-13T22:26:48.175Z,98747.97
2018-08-13T22:32:53.068Z,98744.17
2018-08-13T22:38:59.081Z,98749.64
2018-08-13T22:45:04.396Z,98748.23
2018-08-13T22:51:09.246Z,98758.17
2018-08-13T22:57:14.371Z,98763.36
2018-08-13T23:03:19.219Z,98770.49
2018-08-13T23:09:24.103Z,98764.98
2018-08-13T23:15:29.553Z,98773.39
2018-08-13T23:21:35.679Z,98771.27
2018-08-13T23:27:40.836Z,98774.87
2018-08-13T23:33:45.575Z,98772.57
2018-08-13T23:39:50.341Z,98776.25
2018-08-13T23:45:55.699Z,98785.38
2018-08-13T23:52:00.741Z,98776.63
2018-08-13T23:58:08.229Z,98774.06
